createdAt,value
2022-11-28T00:00:14.473Z,4.40
2022-11-28T00:02:45.419Z,4.40
2022-11-28T00:05:16.262Z,4.34
2022-11-28T00:07:47.072Z,4.36
2022-11-28T00:10:18.020Z,4.34
2022-11-28T00:12:48.996Z,4.34
2022-11-28T00:15:19.840Z,4.30
2022-11-28T00:17:50.456Z,4.30
2022-11-28T00:20:21.081Z,4.27
2022-11-28T00:22:52.233Z,4.34
2022-11-28T00:25:24.181Z,4.24
2022-11-28T00:27:54.620Z,4.32
2022-11-28T00:30:26.479Z,4.17
2022-11-28T00:32:56.971Z,4.18
2022-11-28T00:35:29.075Z,4.16
2022-11-28T00:37:59.524Z,4.10
2022-11-28T00:40:29.841Z,4.06
2022-11-28T00:43:00.321Z,4.12
2022-11-28T00:45:30.765Z,4.04
2022-11-28T00:48:02.911Z,4.00
2022-11-28T00:50:33.410Z,4.04
2022-11-28T00:53:03.988Z,4.04
2022-11-28T00:55:34.497Z,4.10
2022-11-28T00:58:06.347Z,3.99
2022-11-28T01:00:37.391Z,4.01
2022-11-28T01:03:09.455Z,4.07
2022-11-28T01:05:44.810Z,3.96
2022-11-28T01:08:16.938Z,3.98
2022-11-28T01:10:47.445Z,3.88
2022-11-28T01:13:18.016Z,3.92
2022-11-28T01:15:49.710Z,3.87
2022-11-28T01:18:21.567Z,3.81
2022-11-28T01:20:52.047Z,3.91
2022-11-28T01:23:22.569Z,3.84
2022-11-28T01:25:53.044Z,3.90
2022-11-28T01:28:23.797Z,3.80
2022-11-28T01:30:54.450Z,3.71
2022-11-28T01:33:25.071Z,3.75
2022-11-28T01:35:57.429Z,3.72
2022-11-28T01:38:29.002Z,3.68
2022-11-28T01:40:59.633Z,3.74
2022-11-28T01:43:30.645Z,3.70
2022-11-28T01:46:01.264Z,3.66
2022-11-28T01:48:34.496Z,3.67
2022-11-28T01:51:11.255Z,3.62
2022-11-28T01:53:45.620Z,3.68
2022-11-28T01:56:21.756Z,3.70
2022-11-28T01:58:55.394Z,3.70
2022-11-28T02:01:26.842Z,3.69
2022-11-28T02:03:59.486Z,3.64
2022-11-28T02:06:31.816Z,3.66
2022-11-28T02:09:02.325Z,3.64
2022-11-28T02:11:58.648Z,3.64
2022-11-28T02:14:53.248Z,3.66
2022-11-28T02:17:42.474Z,3.68
2022-11-28T02:20:25.326Z,3.62
2022-11-28T02:23:16.932Z,3.64
2022-11-28T02:26:10.510Z,3.56
2022-11-28T02:29:02.616Z,3.58
2022-11-28T02:31:38.934Z,3.54
2022-11-28T02:34:15.541Z,3.48
2022-11-28T02:36:53.985Z,3.48
2022-11-28T02:39:42.920Z,3.47
2022-11-28T02:42:47.062Z,3.44
2022-11-28T02:45:28.115Z,3.45
2022-11-28T02:48:04.385Z,3.41
2022-11-28T02:50:42.102Z,3.41
2022-11-28T02:53:15.721Z,3.39
2022-11-28T02:55:46.516Z,3.40
2022-11-28T02:58:20.935Z,3.40
2022-11-28T03:00:52.656Z,3.41
2022-11-28T03:03:27.114Z,3.36
2022-11-28T03:06:20.275Z,3.40
2022-11-28T03:08:53.831Z,3.38
2022-11-28T03:11:53.356Z,3.35
2022-11-28T03:14:45.043Z,3.36
2022-11-28T03:17:36.704Z,3.40
2022-11-28T03:20:25.652Z,3.42
2022-11-28T03:23:11.018Z,3.40
2022-11-28T03:26:02.758Z,3.40
2022-11-28T03:28:42.147Z,3.46
2022-11-28T03:31:17.864Z,3.42
2022-11-28T03:33:57.615Z,3.44
2022-11-28T03:36:33.729Z,3.45
2022-11-28T03:39:13.376Z,3.42
2022-11-28T03:41:47.080Z,3.42
2022-11-28T03:44:23.570Z,3.43
2022-11-28T03:46:57.246Z,3.41
2022-11-28T03:49:33.848Z,3.44
2022-11-28T03:52:07.213Z,3.44
2022-11-28T03:55:04.122Z,3.43
2022-11-28T03:57:46.476Z,3.42
2022-11-28T04:00:17.955Z,3.40
2022-11-28T04:03:18.183Z,3.43
2022-11-28T04:06:06.923Z,3.38
2022-11-28T04:08:46.593Z,3.35
2022-11-28T04:11:22.937Z,3.34
2022-11-28T04:14:02.572Z,3.33
2022-11-28T04:16:39.284Z,3.32
2022-11-28T04:19:46.520Z,3.30
2022-11-28T04:22:37.281Z,3.32
2022-11-28T04:25:10.874Z,3.28
2022-11-28T04:27:46.890Z,3.28
2022-11-28T04:30:17.879Z,3.26
2022-11-28T04:32:55.438Z,3.30
2022-11-28T04:35:34.619Z,3.26
2022-11-28T04:38:07.462Z,3.27
2022-11-28T04:40:40.942Z,3.31
2022-11-28T04:43:14.585Z,3.31
2022-11-28T04:45:49.264Z,3.28
2022-11-28T04:48:20.560Z,3.32
2022-11-28T04:51:12.144Z,3.31
2022-11-28T04:53:46.537Z,3.38
2022-11-28T04:56:23.340Z,3.40
2022-11-28T04:58:54.004Z,3.38
2022-11-28T05:01:27.553Z,3.42
2022-11-28T05:03:58.753Z,3.48
2022-11-28T05:06:32.134Z,3.50
2022-11-28T05:09:03.067Z,3.54
2022-11-28T05:11:33.685Z,3.52
2022-11-28T05:14:04.476Z,3.54
2022-11-28T05:16:35.473Z,3.58
2022-11-28T05:19:06.198Z,3.54
2022-11-28T05:21:37.746Z,3.57
2022-11-28T05:24:10.382Z,3.62
2022-11-28T05:26:42.653Z,3.57
2022-11-28T05:29:13.226Z,3.56
2022-11-28T05:31:45.624Z,3.62
2022-11-28T05:34:16.524Z,3.66
2022-11-28T05:36:47.065Z,3.64
2022-11-28T05:39:18.371Z,3.66
2022-11-28T05:41:49.480Z,3.62
2022-11-28T05:44:26.686Z,3.67
2022-11-28T05:46:54.859Z,3.58
2022-11-28T05:49:26.420Z,3.58
2022-11-28T05:51:56.947Z,3.57
2022-11-28T05:54:27.761Z,3.55
2022-11-28T05:56:58.357Z,3.55
2022-11-28T05:59:28.785Z,3.56
2022-11-28T06:01:59.450Z,3.57
2022-11-28T06:04:30.188Z,3.54
2022-11-28T06:07:00.687Z,3.58
2022-11-28T06:09:31.210Z,3.63
2022-11-28T06:12:01.843Z,3.60
2022-11-28T06:14:32.969Z,3.59
2022-11-28T06:17:03.553Z,3.52
2022-11-28T06:19:35.173Z,3.60
2022-11-28T06:22:06.065Z,3.56
2022-11-28T06:24:36.616Z,3.53
2022-11-28T06:27:07.718Z,3.51
2022-11-28T06:29:39.393Z,3.52
2022-11-28T06:32:09.965Z,3.45
2022-11-28T06:34:40.647Z,3.44
2022-11-28T06:37:11.303Z,3.46
2022-11-28T06:39:41.965Z,3.44
2022-11-28T06:42:14.265Z,3.44
2022-11-28T06:44:46.370Z,3.39
2022-11-28T06:47:16.969Z,3.41
2022-11-28T06:49:49.920Z,3.40
2022-11-28T06:52:20.377Z,3.36
2022-11-28T06:54:52.812Z,3.30
2022-11-28T06:57:23.773Z,3.27
2022-11-28T06:59:54.220Z,3.32
2022-11-28T07:02:25.366Z,3.31
2022-11-28T07:04:56.032Z,3.25
2022-11-28T07:07:26.506Z,3.32
2022-11-28T07:09:57.091Z,3.26
2022-11-28T07:12:28.311Z,3.22
2022-11-28T07:15:01.727Z,3.24
2022-11-28T07:17:32.384Z,3.26
2022-11-28T07:20:03.017Z,3.25
2022-11-28T07:22:33.596Z,3.24
2022-11-28T07:25:04.286Z,3.25
2022-11-28T07:27:34.978Z,3.30
2022-11-28T07:30:06.680Z,3.30
2022-11-28T07:32:40.420Z,3.34
2022-11-28T07:35:12.243Z,3.36
2022-11-28T07:37:42.693Z,3.32
2022-11-28T07:40:13.549Z,3.50
2022-11-28T07:42:48.636Z,3.45
2022-11-28T07:45:22.862Z,3.34
2022-11-28T07:47:54.612Z,3.53
2022-11-28T07:50:26.380Z,3.50
2022-11-28T07:53:05.603Z,3.52
2022-11-28T07:55:34.056Z,3.57
2022-11-28T07:58:05.643Z,3.48
2022-11-28T08:00:39.781Z,3.50
2022-11-28T08:03:10.329Z,3.42
2022-11-28T08:05:42.169Z,3.45
2022-11-28T08:08:12.617Z,3.44
2022-11-28T08:10:43.145Z,3.66
2022-11-28T08:13:15.665Z,3.62
2022-11-28T08:15:46.427Z,3.64
2022-11-28T08:18:17.416Z,3.66
2022-11-28T08:20:48.108Z,3.60
2022-11-28T08:23:23.324Z,3.64
2022-11-28T08:25:54.306Z,3.50
2022-11-28T08:28:24.875Z,3.48
2022-11-28T08:30:57.652Z,3.60
2022-11-28T08:33:30.889Z,3.58
2022-11-28T08:36:02.770Z,3.90
2022-11-28T08:38:34.500Z,3.72
2022-11-28T08:41:08.252Z,3.96
2022-11-28T08:43:39.602Z,3.86
2022-11-28T08:46:21.743Z,3.78
2022-11-28T08:48:55.311Z,3.96
2022-11-28T08:51:25.999Z,4.02
2022-11-28T08:54:01.308Z,3.91
2022-11-28T08:56:32.711Z,3.78
2022-11-28T08:59:09.695Z,3.88
2022-11-28T09:01:41.229Z,3.87
2022-11-28T09:04:12.648Z,3.94
2022-11-28T09:06:45.399Z,4.12
2022-11-28T09:09:16.084Z,4.07
2022-11-28T09:11:48.212Z,4.06
2022-11-28T09:14:19.301Z,4.12
2022-11-28T09:16:52.804Z,4.16
2022-11-28T09:19:26.017Z,4.30
2022-11-28T09:21:58.061Z,4.13
2022-11-28T09:24:30.694Z,4.16
2022-11-28T09:27:00.928Z,4.13
2022-11-28T09:29:33.199Z,4.38
2022-11-28T09:32:05.672Z,4.50
2022-11-28T09:34:36.714Z,4.26
2022-11-28T09:37:07.481Z,4.20
2022-11-28T09:39:57.406Z,4.26
2022-11-28T09:42:36.830Z,4.37
2022-11-28T09:45:17.638Z,4.56
2022-11-28T09:47:51.169Z,4.73
2022-11-28T09:50:27.261Z,4.78
2022-11-28T09:53:05.280Z,4.60
2022-11-28T09:55:41.499Z,4.64
2022-11-28T09:58:36.467Z,4.54
2022-11-28T10:01:28.125Z,4.66
2022-11-28T10:04:05.406Z,4.82
2022-11-28T10:06:51.323Z,4.84
2022-11-28T10:09:28.059Z,4.90
2022-11-28T10:12:13.755Z,4.92
2022-11-28T10:15:05.543Z,4.72
2022-11-28T10:17:39.155Z,4.80
2022-11-28T10:20:17.415Z,5.06
2022-11-28T10:23:00.620Z,4.95
2022-11-28T10:25:34.773Z,4.91
2022-11-28T10:28:14.284Z,4.98
2022-11-28T10:30:49.466Z,4.87
2022-11-28T10:33:30.349Z,4.88
2022-11-28T10:36:02.662Z,4.90
2022-11-28T10:38:36.695Z,4.78
2022-11-28T10:41:36.822Z,4.95
2022-11-28T10:44:29.584Z,5.06
2022-11-28T10:47:06.730Z,5.12
2022-11-28T10:49:50.905Z,5.18
2022-11-28T10:52:24.356Z,5.14
2022-11-28T10:55:10.345Z,5.18
2022-11-28T10:58:00.536Z,5.09
2022-11-28T11:00:32.473Z,5.24
2022-11-28T11:03:04.627Z,5.10
2022-11-28T11:05:37.188Z,5.04
2022-11-28T11:08:23.271Z,5.14
2022-11-28T11:11:04.219Z,5.22
2022-11-28T11:13:37.722Z,5.12
2022-11-28T11:16:11.391Z,5.17
2022-11-28T11:18:47.119Z,5.24
2022-11-28T11:21:28.435Z,5.28
2022-11-28T11:24:18.839Z,5.32
2022-11-28T11:26:50.604Z,5.46
2022-11-28T11:29:24.068Z,5.36
2022-11-28T11:31:56.230Z,5.32
2022-11-28T11:34:27.934Z,5.46
2022-11-28T11:37:17.828Z,5.36
2022-11-28T11:39:54.925Z,5.38
2022-11-28T11:42:28.081Z,5.40
2022-11-28T11:45:18.327Z,5.46
2022-11-28T11:47:48.900Z,5.50
2022-11-28T11:50:22.823Z,5.56
2022-11-28T11:53:16.707Z,5.38
2022-11-28T11:55:53.325Z,5.46
2022-11-28T11:58:26.849Z,5.58
2022-11-28T12:01:01.399Z,5.60
2022-11-28T12:03:37.921Z,5.60
2022-11-28T12:06:14.636Z,5.64
2022-11-28T12:08:51.720Z,5.82
2022-11-28T12:11:28.195Z,5.88
2022-11-28T12:14:07.530Z,5.64
2022-11-28T12:17:25.539Z,5.71
2022-11-28T12:19:52.887Z,5.62
2022-11-28T12:22:26.380Z,5.68
2022-11-28T12:25:02.828Z,5.74
2022-11-28T12:27:45.282Z,5.82
2022-11-28T12:30:29.044Z,5.69
2022-11-28T12:33:14.673Z,5.79
2022-11-28T12:36:04.871Z,5.88
2022-11-28T12:38:50.885Z,5.91
2022-11-28T12:41:44.148Z,5.99
2022-11-28T12:44:38.193Z,5.89
2022-11-28T12:47:15.421Z,5.96
2022-11-28T12:49:49.066Z,5.98
2022-11-28T12:52:39.361Z,5.88
2022-11-28T12:55:22.176Z,5.88
2022-11-28T12:58:07.075Z,5.90
2022-11-28T13:00:58.551Z,5.90
2022-11-28T13:04:04.348Z,5.96
2022-11-28T13:06:37.907Z,5.82
2022-11-28T13:09:36.478Z,5.69
2022-11-28T13:12:30.662Z,5.78
2022-11-28T13:15:04.225Z,5.84
2022-11-28T13:17:55.001Z,5.82
2022-11-28T13:20:28.508Z,5.78
2022-11-28T13:23:02.101Z,5.70
2022-11-28T13:25:47.119Z,5.73
2022-11-28T13:28:20.749Z,5.54
2022-11-28T13:30:54.588Z,5.60
2022-11-28T13:33:37.545Z,5.57
2022-11-28T13:38:35.131Z,5.48
2022-11-28T13:39:12.267Z,5.55
2022-11-28T13:42:09.555Z,5.53
2022-11-28T13:44:16.497Z,5.54
2022-11-28T13:46:47.458Z,5.44
2022-11-28T13:49:29.649Z,5.49
2022-11-28T13:52:21.693Z,5.61
2022-11-28T13:54:55.168Z,5.39
2022-11-28T13:57:33.750Z,5.42
2022-11-28T14:00:07.301Z,5.42
2022-11-28T14:02:41.931Z,5.38
2022-11-28T14:05:34.043Z,5.42
2022-11-28T14:08:08.399Z,5.32
2022-11-28T14:10:53.382Z,5.38
2022-11-28T14:13:28.021Z,5.32
2022-11-28T14:16:07.774Z,5.29
2022-11-28T14:18:57.748Z,5.04
2022-11-28T14:21:44.459Z,5.08
2022-11-28T14:24:42.516Z,4.94
2022-11-28T14:27:25.012Z,4.89
2022-11-28T14:29:58.564Z,5.00
2022-11-28T14:32:34.789Z,4.92
2022-11-28T14:35:07.654Z,4.93
2022-11-28T14:37:55.767Z,4.90
2022-11-28T14:40:58.570Z,4.80
2022-11-28T14:43:39.289Z,4.78
2022-11-28T14:46:29.699Z,4.70
2022-11-28T14:49:04.786Z,4.61
2022-11-28T14:52:15.872Z,4.54
2022-11-28T14:54:38.905Z,4.60
2022-11-28T14:57:37.521Z,4.64
2022-11-28T15:00:15.218Z,4.69
2022-11-28T15:02:49.173Z,4.66
2022-11-28T15:05:22.697Z,4.76
2022-11-28T15:08:05.528Z,4.72
2022-11-28T15:10:41.846Z,4.58
2022-11-28T15:13:30.877Z,4.47
2022-11-28T15:16:04.462Z,4.42
2022-11-28T15:18:35.932Z,4.35
2022-11-28T15:21:09.601Z,4.36
2022-11-28T15:23:41.218Z,4.34
2022-11-28T15:26:21.298Z,4.36
2022-11-28T15:28:54.879Z,4.42
2022-11-28T15:31:25.600Z,4.38
2022-11-28T15:33:56.169Z,4.32
2022-11-28T15:36:29.221Z,4.32
2022-11-28T15:38:59.829Z,4.30
2022-11-28T15:41:30.612Z,4.36
2022-11-28T15:44:01.608Z,4.40
2022-11-28T15:46:34.849Z,4.32
2022-11-28T15:49:07.212Z,4.35
2022-11-28T15:51:37.749Z,4.32
2022-11-28T15:54:26.705Z,4.30
2022-11-28T15:57:01.340Z,4.24
2022-11-28T15:59:32.430Z,4.24
2022-11-28T16:02:10.429Z,4.30
2022-11-28T16:04:41.914Z,4.16
2022-11-28T16:07:16.002Z,4.14
2022-11-28T16:09:55.580Z,4.19
2022-11-28T16:12:30.608Z,4.16
2022-11-28T16:15:05.121Z,4.08
2022-11-28T16:17:36.159Z,4.15
2022-11-28T16:20:07.821Z,4.02
2022-11-28T16:22:38.924Z,4.02
2022-11-28T16:25:15.202Z,4.02
2022-11-28T16:27:47.565Z,4.00
2022-11-28T16:30:37.668Z,4.08
2022-11-28T16:33:42.393Z,4.08
2022-11-28T16:36:27.838Z,4.04
2022-11-28T16:39:18.543Z,4.01
2022-11-28T16:41:54.933Z,4.06
2022-11-28T16:44:28.140Z,4.04
2022-11-28T16:46:59.852Z,3.98
2022-11-28T16:49:44.938Z,3.94
2022-11-28T16:52:25.157Z,3.82
2022-11-28T16:54:56.821Z,3.82
2022-11-28T16:57:33.093Z,3.90
2022-11-28T17:00:05.037Z,3.86
2022-11-28T17:02:35.734Z,3.84
2022-11-28T17:05:10.039Z,3.82
2022-11-28T17:07:40.653Z,3.93
2022-11-28T17:10:15.579Z,3.96
2022-11-28T17:12:46.289Z,4.02
2022-11-28T17:15:22.762Z,3.92
2022-11-28T17:17:54.834Z,3.84
2022-11-28T17:20:27.591Z,3.84
2022-11-28T17:22:59.061Z,3.89
2022-11-28T17:25:29.602Z,3.94
2022-11-28T17:28:00.043Z,4.00
2022-11-28T17:30:30.598Z,4.05
2022-11-28T17:33:01.920Z,3.99
2022-11-28T17:35:35.449Z,3.94
2022-11-28T17:38:05.904Z,3.87
2022-11-28T17:40:38.762Z,3.96
2022-11-28T17:43:19.880Z,3.95
2022-11-28T17:45:51.872Z,3.96
2022-11-28T17:48:23.615Z,4.12
2022-11-28T17:50:54.051Z,4.00
2022-11-28T17:53:25.851Z,3.90
2022-11-28T17:55:58.323Z,3.84
2022-11-28T17:58:29.288Z,3.85
2022-11-28T18:01:00.933Z,3.86
2022-11-28T18:03:31.598Z,3.78
2022-11-28T18:06:02.235Z,3.86
2022-11-28T18:08:33.723Z,3.93
2022-11-28T18:11:10.717Z,3.90
2022-11-28T18:13:42.594Z,3.98
2022-11-28T18:16:15.334Z,3.86
2022-11-28T18:18:46.212Z,3.90
2022-11-28T18:21:17.348Z,3.94
2022-11-28T18:23:50.708Z,3.97
2022-11-28T18:26:24.345Z,3.98
2022-11-28T18:28:55.244Z,3.88
2022-11-28T18:31:28.101Z,3.90
2022-11-28T18:34:04.716Z,3.86
2022-11-28T18:36:38.294Z,3.92
2022-11-28T18:39:11.857Z,3.80
2022-11-28T18:41:43.037Z,3.80
2022-11-28T18:44:13.594Z,3.88
2022-11-28T18:46:44.676Z,3.82
2022-11-28T18:49:19.594Z,3.80
2022-11-28T18:51:50.422Z,3.77
2022-11-28T18:54:21.779Z,3.80
2022-11-28T18:56:52.539Z,3.89
2022-11-28T18:59:23.498Z,3.87
2022-11-28T19:01:54.509Z,3.84
2022-11-28T19:04:25.099Z,3.82
2022-11-28T19:06:55.674Z,3.95
2022-11-28T19:09:26.233Z,3.90
2022-11-28T19:11:56.764Z,3.80
2022-11-28T19:14:27.212Z,3.86
2022-11-28T19:16:57.678Z,3.86
2022-11-28T19:19:29.487Z,3.86
2022-11-28T19:22:01.672Z,3.84
2022-11-28T19:24:32.514Z,3.86
2022-11-28T19:27:02.932Z,3.87
2022-11-28T19:29:34.503Z,3.88
2022-11-28T19:32:05.097Z,3.93
2022-11-28T19:34:35.847Z,3.97
2022-11-28T19:37:06.797Z,4.00
2022-11-28T19:39:40.435Z,3.88
2022-11-28T19:42:13.525Z,3.82
2022-11-28T19:44:44.079Z,3.85
2022-11-28T19:47:15.667Z,3.88
2022-11-28T19:49:46.552Z,3.86
2022-11-28T19:52:17.430Z,3.88
2022-11-28T19:54:48.864Z,3.89
2022-11-28T19:57:20.598Z,3.92
2022-11-28T19:59:51.078Z,4.01
2022-11-28T20:02:25.757Z,3.93
2022-11-28T20:04:57.645Z,4.02
2022-11-28T20:07:29.347Z,3.94
2022-11-28T20:09:59.873Z,4.00
2022-11-28T20:12:30.460Z,3.93
2022-11-28T20:15:02.364Z,3.90
2022-11-28T20:17:32.861Z,3.99
2022-11-28T20:20:04.569Z,3.94
2022-11-28T20:22:37.733Z,3.96
2022-11-28T20:25:13.438Z,3.90
2022-11-28T20:27:45.143Z,4.02
2022-11-28T20:30:15.492Z,4.04
2022-11-28T20:32:46.055Z,4.01
2022-11-28T20:35:17.876Z,4.00
2022-11-28T20:37:49.008Z,4.05
2022-11-28T20:40:19.722Z,3.98
2022-11-28T20:42:51.076Z,4.08
2022-11-28T20:45:21.502Z,4.02
2022-11-28T20:47:52.066Z,4.00
2022-11-28T20:50:25.043Z,3.96
2022-11-28T20:52:55.887Z,4.00
2022-11-28T20:55:27.605Z,4.02
2022-11-28T20:57:58.807Z,3.86
2022-11-28T21:00:29.250Z,3.97
2022-11-28T21:02:59.728Z,3.91
2022-11-28T21:05:30.498Z,3.93
2022-11-28T21:08:01.101Z,3.94
2022-11-28T21:10:34.003Z,3.89
2022-11-28T21:13:04.518Z,3.92
2022-11-28T21:15:34.902Z,3.86
2022-11-28T21:18:05.782Z,3.94
2022-11-28T21:20:38.312Z,3.95
2022-11-28T21:23:09.014Z,3.92
2022-11-28T21:25:41.492Z,3.98
2022-11-28T21:28:13.111Z,3.96
2022-11-28T21:30:48.052Z,4.04
2022-11-28T21:33:18.487Z,3.89
2022-11-28T21:35:49.038Z,3.93
2022-11-28T21:38:19.470Z,3.96
2022-11-28T21:40:54.101Z,3.94
2022-11-28T21:43:29.029Z,3.96
2022-11-28T21:46:05.710Z,3.90
2022-11-28T21:48:36.800Z,3.88
2022-11-28T21:51:08.697Z,3.80
2022-11-28T21:53:39.198Z,3.88
2022-11-28T21:56:11.678Z,3.82
2022-11-28T21:58:42.095Z,3.88
2022-11-28T22:01:14.952Z,3.79
2022-11-28T22:03:45.897Z,3.84
2022-11-28T22:06:20.505Z,3.86
2022-11-28T22:08:51.805Z,3.79
2022-11-28T22:11:24.269Z,3.76
2022-11-28T22:13:54.730Z,3.77
2022-11-28T22:16:27.973Z,3.79
2022-11-28T22:19:00.467Z,3.83
2022-11-28T22:24:03.427Z,3.66
2022-11-28T22:26:34.355Z,3.72
2022-11-28T22:29:05.412Z,3.68
2022-11-28T22:31:36.320Z,3.78
2022-11-28T22:34:07.218Z,3.86
2022-11-28T22:36:38.617Z,3.73
2022-11-28T22:39:10.679Z,3.74
2022-11-28T22:41:43.733Z,3.76
2022-11-28T22:44:13.549Z,3.79
2022-11-28T22:46:45.255Z,3.68
2022-11-28T22:49:15.697Z,3.70
2022-11-28T22:51:46.400Z,3.65
2022-11-28T22:54:16.990Z,3.68
2022-11-28T22:56:47.622Z,3.64
2022-11-28T22:59:18.281Z,3.72
2022-11-28T23:01:48.872Z,3.65
2022-11-28T23:04:19.609Z,3.72
2022-11-28T23:06:50.068Z,3.76
2022-11-28T23:09:21.038Z,3.68
2022-11-28T23:11:51.460Z,3.63
2022-11-28T23:14:21.825Z,3.66
2022-11-28T23:16:54.663Z,3.66
2022-11-28T23:19:26.294Z,3.57
2022-11-28T23:21:58.513Z,3.60
2022-11-28T23:24:29.063Z,3.52
2022-11-28T23:26:59.758Z,3.54
2022-11-28T23:29:30.296Z,3.55
2022-11-28T23:32:00.823Z,3.59
2022-11-28T23:34:31.634Z,3.61
2022-11-28T23:37:02.150Z,3.60
2022-11-28T23:39:32.930Z,3.57
2022-11-28T23:42:04.149Z,3.72
2022-11-28T23:44:34.591Z,3.71
2022-11-28T23:47:07.193Z,3.59
2022-11-28T23:49:37.639Z,3.63
2022-11-28T23:52:08.226Z,3.62
2022-11-28T23:54:39.067Z,3.66
2022-11-28T23:57:09.691Z,3.64
2022-11-28T23:59:43.718Z,3.60
